sensor_id;sensor_type;location;lat;lon;timestamp;P1;durP1;ratioP1;P2;durP2;ratioP2
24084;SDS011;12268;52.110;5.548;2023-08-21T00:02:21;11.65;;;7.20;;
24084;SDS011;12268;52.110;5.548;2023-08-21T00:04:47;20.27;;;8.80;;
24084;SDS011;12268;52.110;5.548;2023-08-21T00:07:12;15.07;;;8.60;;
24084;SDS011;12268;52.110;5.548;2023-08-21T00:09:38;15.77;;;9.20;;
24084;SDS011;12268;52.110;5.548;2023-08-21T00:12:03;14.57;;;7.60;;
24084;SDS011;12268;52.110;5.548;2023-08-21T00:14:29;12.80;;;7.80;;
24084;SDS011;12268;52.110;5.548;2023-08-21T00:16:55;17.10;;;9.40;;
24084;SDS011;12268;52.110;5.548;2023-08-21T00:19:20;15.13;;;9.82;;
24084;SDS011;12268;52.110;5.548;2023-08-21T00:21:46;43.28;;;20.30;;
24084;SDS011;12268;52.110;5.548;2023-08-21T00:24:12;46.95;;;18.77;;
24084;SDS011;12268;52.110;5.548;2023-08-21T00:26:38;27.95;;;13.43;;
24084;SDS011;12268;52.110;5.548;2023-08-21T00:29:03;14.80;;;9.07;;
24084;SDS011;12268;52.110;5.548;2023-08-21T00:31:29;14.60;;;8.95;;
24084;SDS011;12268;52.110;5.548;2023-08-21T00:33:54;17.98;;;9.52;;
24084;SDS011;12268;52.110;5.548;2023-08-21T00:36:20;20.58;;;12.40;;
24084;SDS011;12268;52.110;5.548;2023-08-21T00:38:45;24.60;;;11.73;;
24084;SDS011;12268;52.110;5.548;2023-08-21T00:41:12;23.98;;;11.68;;
24084;SDS011;12268;52.110;5.548;2023-08-21T00:43:38;24.10;;;12.05;;
24084;SDS011;12268;52.110;5.548;2023-08-21T00:46:03;21.00;;;11.52;;
24084;SDS011;12268;52.110;5.548;2023-08-21T00:48:29;16.55;;;11.40;;
24084;SDS011;12268;52.110;5.548;2023-08-21T00:50:55;20.77;;;11.13;;
24084;SDS011;12268;52.110;5.548;2023-08-21T00:53:21;17.90;;;11.48;;
24084;SDS011;12268;52.110;5.548;2023-08-21T00:55:46;18.02;;;10.90;;
24084;SDS011;12268;52.110;5.548;2023-08-21T00:58:12;20.30;;;12.85;;
24084;SDS011;12268;52.110;5.548;2023-08-21T01:00:39;22.70;;;13.57;;
24084;SDS011;12268;52.110;5.548;2023-08-21T01:03:06;28.48;;;13.90;;
24084;SDS011;12268;52.110;5.548;2023-08-21T01:05:32;29.90;;;13.85;;
24084;SDS011;12268;52.110;5.548;2023-08-21T01:10:39;21.20;;;11.70;;
24084;SDS011;12268;52.110;5.548;2023-08-21T01:13:21;21.15;;;12.63;;
24084;SDS011;12268;52.110;5.548;2023-08-21T01:15:56;19.88;;;11.95;;
24084;SDS011;12268;52.110;5.548;2023-08-21T01:18:22;23.33;;;12.80;;
24084;SDS011;12268;52.110;5.548;2023-08-21T01:20:49;27.42;;;13.55;;
24084;SDS011;12268;52.110;5.548;2023-08-21T01:23:29;28.23;;;14.18;;
24084;SDS011;12268;52.110;5.548;2023-08-21T01:26:01;21.05;;;12.98;;
24084;SDS011;12268;52.110;5.548;2023-08-21T01:28:27;28.70;;;13.80;;
24084;SDS011;12268;52.110;5.548;2023-08-21T01:30:59;19.35;;;13.95;;
24084;SDS011;12268;52.110;5.548;2023-08-21T01:33:32;22.15;;;13.82;;
24084;SDS011;12268;52.110;5.548;2023-08-21T01:36:00;25.75;;;13.35;;
24084;SDS011;12268;52.110;5.548;2023-08-21T01:38:29;23.52;;;13.30;;
24084;SDS011;12268;52.110;5.548;2023-08-21T01:41:00;24.23;;;13.38;;
24084;SDS011;12268;52.110;5.548;2023-08-21T01:43:26;25.85;;;14.00;;
24084;SDS011;12268;52.110;5.548;2023-08-21T01:45:51;24.60;;;14.18;;
24084;SDS011;12268;52.110;5.548;2023-08-21T01:48:17;23.98;;;14.60;;
24084;SDS011;12268;52.110;5.548;2023-08-21T01:50:42;24.58;;;12.98;;
24084;SDS011;12268;52.110;5.548;2023-08-21T01:53:08;24.25;;;14.82;;
24084;SDS011;12268;52.110;5.548;2023-08-21T01:55:33;23.25;;;14.13;;
24084;SDS011;12268;52.110;5.548;2023-08-21T01:57:59;32.88;;;16.48;;
24084;SDS011;12268;52.110;5.548;2023-08-21T02:00:25;25.05;;;14.98;;
24084;SDS011;12268;52.110;5.548;2023-08-21T02:02:50;24.70;;;14.63;;
24084;SDS011;12268;52.110;5.548;2023-08-21T02:05:16;31.75;;;14.35;;
24084;SDS011;12268;52.110;5.548;2023-08-21T02:07:41;20.92;;;13.70;;
24084;SDS011;12268;52.110;5.548;2023-08-21T02:10:07;21.52;;;13.05;;
24084;SDS011;12268;52.110;5.548;2023-08-21T02:12:33;22.08;;;13.02;;
24084;SDS011;12268;52.110;5.548;2023-08-21T02:14:58;25.27;;;13.68;;
24084;SDS011;12268;52.110;5.548;2023-08-21T02:17:26;29.52;;;15.68;;
24084;SDS011;12268;52.110;5.548;2023-08-21T02:19:51;29.30;;;16.35;;
24084;SDS011;12268;52.110;5.548;2023-08-21T02:22:17;25.00;;;15.70;;
24084;SDS011;12268;52.110;5.548;2023-08-21T02:24:43;29.27;;;15.73;;
24084;SDS011;12268;52.110;5.548;2023-08-21T02:27:08;27.10;;;15.73;;
24084;SDS011;12268;52.110;5.548;2023-08-21T02:29:34;24.05;;;14.07;;
24084;SDS011;12268;52.110;5.548;2023-08-21T02:31:59;22.38;;;13.57;;
24084;SDS011;12268;52.110;5.548;2023-08-21T02:34:25;25.33;;;14.07;;
24084;SDS011;12268;52.110;5.548;2023-08-21T02:36:51;23.88;;;12.60;;
24084;SDS011;12268;52.110;5.548;2023-08-21T02:39:17;23.45;;;13.30;;
24084;SDS011;12268;52.110;5.548;2023-08-21T02:41:42;20.38;;;12.48;;
24084;SDS011;12268;52.110;5.548;2023-08-21T02:44:08;22.52;;;12.30;;
24084;SDS011;12268;52.110;5.548;2023-08-21T02:46:33;22.83;;;12.88;;
24084;SDS011;12268;52.110;5.548;2023-08-21T02:49:01;17.70;;;12.07;;
24084;SDS011;12268;52.110;5.548;2023-08-21T02:51:27;16.98;;;12.00;;
24084;SDS011;12268;52.110;5.548;2023-08-21T02:53:52;20.60;;;12.68;;
24084;SDS011;12268;52.110;5.548;2023-08-21T02:56:18;19.55;;;11.55;;
24084;SDS011;12268;52.110;5.548;2023-08-21T02:58:44;25.25;;;11.70;;
24084;SDS011;12268;52.110;5.548;2023-08-21T03:01:09;18.40;;;11.30;;
24084;SDS011;12268;52.110;5.548;2023-08-21T03:03:35;21.98;;;11.65;;
24084;SDS011;12268;52.110;5.548;2023-08-21T03:06:00;21.35;;;11.68;;
24084;SDS011;12268;52.110;5.548;2023-08-21T03:08:26;21.23;;;11.20;;
24084;SDS011;12268;52.110;5.548;2023-08-21T03:10:52;21.98;;;10.80;;
24084;SDS011;12268;52.110;5.548;2023-08-21T03:13:17;18.40;;;10.75;;
24084;SDS011;12268;52.110;5.548;2023-08-21T03:15:43;15.48;;;11.13;;
24084;SDS011;12268;52.110;5.548;2023-08-21T03:18:09;16.27;;;10.63;;
24084;SDS011;12268;52.110;5.548;2023-08-21T03:20:35;16.40;;;11.68;;
24084;SDS011;12268;52.110;5.548;2023-08-21T03:23:00;18.02;;;11.05;;
24084;SDS011;12268;52.110;5.548;2023-08-21T03:25:27;25.38;;;10.93;;
24084;SDS011;12268;52.110;5.548;2023-08-21T03:27:52;17.20;;;11.10;;
24084;SDS011;12268;52.110;5.548;2023-08-21T03:30:18;21.25;;;10.90;;
24084;SDS011;12268;52.110;5.548;2023-08-21T03:32:43;26.05;;;11.35;;
24084;SDS011;12268;52.110;5.548;2023-08-21T03:35:09;24.15;;;12.52;;
24084;SDS011;12268;52.110;5.548;2023-08-21T03:37:35;26.08;;;11.60;;
24084;SDS011;12268;52.110;5.548;2023-08-21T03:40:01;17.48;;;9.98;;
24084;SDS011;12268;52.110;5.548;2023-08-21T03:42:30;18.88;;;10.02;;
24084;SDS011;12268;52.110;5.548;2023-08-21T03:44:55;15.82;;;9.85;;
24084;SDS011;12268;52.110;5.548;2023-08-21T03:47:21;14.60;;;9.93;;
24084;SDS011;12268;52.110;5.548;2023-08-21T03:49:47;14.63;;;10.05;;
24084;SDS011;12268;52.110;5.548;2023-08-21T03:52:13;18.80;;;10.93;;
24084;SDS011;12268;52.110;5.548;2023-08-21T03:54:38;15.82;;;10.43;;
24084;SDS011;12268;52.110;5.548;2023-08-21T03:57:04;18.30;;;10.65;;
24084;SDS011;12268;52.110;5.548;2023-08-21T03:59:30;14.93;;;10.82;;
24084;SDS011;12268;52.110;5.548;2023-08-21T04:01:55;17.70;;;12.35;;
24084;SDS011;12268;52.110;5.548;2023-08-21T04:04:21;23.23;;;12.10;;
24084;SDS011;12268;52.110;5.548;2023-08-21T04:06:46;16.13;;;12.82;;
24084;SDS011;12268;52.110;5.548;2023-08-21T04:09:12;16.13;;;11.82;;
24084;SDS011;12268;52.110;5.548;2023-08-21T04:11:37;28.17;;;12.02;;
24084;SDS011;12268;52.110;5.548;2023-08-21T04:14:03;21.73;;;12.45;;
24084;SDS011;12268;52.110;5.548;2023-08-21T04:16:29;24.27;;;12.23;;
24084;SDS011;12268;52.110;5.548;2023-08-21T04:18:55;21.63;;;12.13;;
24084;SDS011;12268;52.110;5.548;2023-08-21T04:21:21;20.38;;;12.10;;
24084;SDS011;12268;52.110;5.548;2023-08-21T04:23:47;24.13;;;12.77;;
24084;SDS011;12268;52.110;5.548;2023-08-21T04:26:13;19.10;;;12.00;;
24084;SDS011;12268;52.110;5.548;2023-08-21T04:28:38;17.45;;;11.57;;
24084;SDS011;12268;52.110;5.548;2023-08-21T04:31:04;18.40;;;11.70;;
24084;SDS011;12268;52.110;5.548;2023-08-21T04:33:30;24.73;;;10.90;;
24084;SDS011;12268;52.110;5.548;2023-08-21T04:35:57;17.73;;;11.25;;
24084;SDS011;12268;52.110;5.548;2023-08-21T04:38:22;17.10;;;10.98;;
24084;SDS011;12268;52.110;5.548;2023-08-21T04:40:48;21.85;;;11.73;;
24084;SDS011;12268;52.110;5.548;2023-08-21T04:43:14;17.42;;;11.65;;
24084;SDS011;12268;52.110;5.548;2023-08-21T04:45:46;19.08;;;11.52;;
24084;SDS011;12268;52.110;5.548;2023-08-21T04:48:15;17.30;;;10.85;;
24084;SDS011;12268;52.110;5.548;2023-08-21T04:50:41;19.73;;;11.75;;
24084;SDS011;12268;52.110;5.548;2023-08-21T04:53:07;15.68;;;11.13;;
24084;SDS011;12268;52.110;5.548;2023-08-21T04:55:33;22.23;;;13.43;;
24084;SDS011;12268;52.110;5.548;2023-08-21T04:57:58;14.90;;;11.85;;
24084;SDS011;12268;52.110;5.548;2023-08-21T05:00:24;16.52;;;11.70;;
24084;SDS011;12268;52.110;5.548;2023-08-21T05:02:49;14.25;;;11.20;;
24084;SDS011;12268;52.110;5.548;2023-08-21T05:05:15;18.98;;;10.23;;
24084;SDS011;12268;52.110;5.548;2023-08-21T05:07:41;20.23;;;10.80;;
24084;SDS011;12268;52.110;5.548;2023-08-21T05:10:06;13.38;;;10.20;;
24084;SDS011;12268;52.110;5.548;2023-08-21T05:12:32;14.07;;;9.63;;
24084;SDS011;12268;52.110;5.548;2023-08-21T05:14:58;17.17;;;10.95;;
24084;SDS011;12268;52.110;5.548;2023-08-21T05:17:24;14.73;;;11.77;;
24084;SDS011;12268;52.110;5.548;2023-08-21T05:19:50;23.13;;;12.55;;
24084;SDS011;12268;52.110;5.548;2023-08-21T05:22:16;18.65;;;12.05;;
24084;SDS011;12268;52.110;5.548;2023-08-21T05:24:41;20.48;;;12.15;;
24084;SDS011;12268;52.110;5.548;2023-08-21T05:27:07;20.95;;;12.10;;
24084;SDS011;12268;52.110;5.548;2023-08-21T05:29:32;27.73;;;11.95;;
24084;SDS011;12268;52.110;5.548;2023-08-21T05:31:59;27.35;;;12.65;;
24084;SDS011;12268;52.110;5.548;2023-08-21T05:34:25;26.27;;;12.98;;
24084;SDS011;12268;52.110;5.548;2023-08-21T05:36:50;26.42;;;12.98;;
24084;SDS011;12268;52.110;5.548;2023-08-21T05:39:19;38.30;;;13.93;;
24084;SDS011;12268;52.110;5.548;2023-08-21T05:41:45;35.97;;;13.18;;
24084;SDS011;12268;52.110;5.548;2023-08-21T05:44:10;26.08;;;13.20;;
24084;SDS011;12268;52.110;5.548;2023-08-21T05:46:36;16.77;;;10.85;;
24084;SDS011;12268;52.110;5.548;2023-08-21T05:49:02;27.20;;;11.68;;
24084;SDS011;12268;52.110;5.548;2023-08-21T05:51:28;32.22;;;12.40;;
24084;SDS011;12268;52.110;5.548;2023-08-21T05:53:54;20.88;;;11.88;;
24084;SDS011;12268;52.110;5.548;2023-08-21T05:56:19;24.17;;;11.70;;
24084;SDS011;12268;52.110;5.548;2023-08-21T05:58:45;33.75;;;12.40;;
24084;SDS011;12268;52.110;5.548;2023-08-21T06:01:10;20.27;;;11.82;;
24084;SDS011;12268;52.110;5.548;2023-08-21T06:03:36;21.35;;;11.90;;
24084;SDS011;12268;52.110;5.548;2023-08-21T06:06:02;26.13;;;12.38;;
24084;SDS011;12268;52.110;5.548;2023-08-21T06:08:28;24.98;;;12.02;;
24084;SDS011;12268;52.110;5.548;2023-08-21T06:10:53;25.17;;;11.70;;
24084;SDS011;12268;52.110;5.548;2023-08-21T06:13:19;18.70;;;11.93;;
24084;SDS011;12268;52.110;5.548;2023-08-21T06:15:44;24.48;;;11.45;;
24084;SDS011;12268;52.110;5.548;2023-08-21T06:18:10;23.40;;;11.65;;
24084;SDS011;12268;52.110;5.548;2023-08-21T06:20:36;21.88;;;11.43;;
24084;SDS011;12268;52.110;5.548;2023-08-21T06:23:01;17.77;;;11.82;;
24084;SDS011;12268;52.110;5.548;2023-08-21T06:25:27;22.05;;;11.23;;
24084;SDS011;12268;52.110;5.548;2023-08-21T06:27:55;20.60;;;10.45;;
24084;SDS011;12268;52.110;5.548;2023-08-21T06:30:21;14.88;;;11.02;;
24084;SDS011;12268;52.110;5.548;2023-08-21T06:32:46;19.30;;;10.50;;
24084;SDS011;12268;52.110;5.548;2023-08-21T06:35:12;16.88;;;10.57;;
24084;SDS011;12268;52.110;5.548;2023-08-21T06:37:38;18.30;;;10.75;;
24084;SDS011;12268;52.110;5.548;2023-08-21T06:40:04;16.35;;;10.73;;
24084;SDS011;12268;52.110;5.548;2023-08-21T06:42:31;22.98;;;12.18;;
24084;SDS011;12268;52.110;5.548;2023-08-21T06:44:57;17.55;;;11.35;;
24084;SDS011;12268;52.110;5.548;2023-08-21T06:47:22;19.92;;;10.98;;
24084;SDS011;12268;52.110;5.548;2023-08-21T06:49:48;23.20;;;11.70;;
24084;SDS011;12268;52.110;5.548;2023-08-21T06:52:14;21.15;;;10.55;;
24084;SDS011;12268;52.110;5.548;2023-08-21T06:54:39;22.52;;;10.50;;
24084;SDS011;12268;52.110;5.548;2023-08-21T06:57:05;18.38;;;9.80;;
24084;SDS011;12268;52.110;5.548;2023-08-21T06:59:30;18.13;;;9.27;;
24084;SDS011;12268;52.110;5.548;2023-08-21T07:02:00;20.80;;;8.82;;
24084;SDS011;12268;52.110;5.548;2023-08-21T07:04:27;15.15;;;7.53;;
24084;SDS011;12268;52.110;5.548;2023-08-21T07:06:53;12.57;;;6.50;;
24084;SDS011;12268;52.110;5.548;2023-08-21T07:09:18;12.90;;;6.40;;
24084;SDS011;12268;52.110;5.548;2023-08-21T07:11:44;13.57;;;7.13;;
24084;SDS011;12268;52.110;5.548;2023-08-21T07:14:09;16.00;;;7.78;;
24084;SDS011;12268;52.110;5.548;2023-08-21T07:16:37;12.15;;;6.88;;
24084;SDS011;12268;52.110;5.548;2023-08-21T07:19:03;13.85;;;6.97;;
24084;SDS011;12268;52.110;5.548;2023-08-21T07:21:28;14.38;;;7.05;;
24084;SDS011;12268;52.110;5.548;2023-08-21T07:23:54;12.90;;;6.93;;
24084;SDS011;12268;52.110;5.548;2023-08-21T07:26:19;14.95;;;6.80;;
24084;SDS011;12268;52.110;5.548;2023-08-21T07:28:45;15.80;;;6.90;;
24084;SDS011;12268;52.110;5.548;2023-08-21T07:31:10;20.02;;;6.90;;
24084;SDS011;12268;52.110;5.548;2023-08-21T07:33:36;12.85;;;5.70;;
24084;SDS011;12268;52.110;5.548;2023-08-21T07:36:02;11.05;;;4.50;;
24084;SDS011;12268;52.110;5.548;2023-08-21T07:38:30;11.95;;;4.63;;
24084;SDS011;12268;52.110;5.548;2023-08-21T07:41:02;16.20;;;4.50;;
24084;SDS011;12268;52.110;5.548;2023-08-21T07:43:29;15.30;;;4.35;;
24084;SDS011;12268;52.110;5.548;2023-08-21T07:45:55;14.88;;;4.70;;
24084;SDS011;12268;52.110;5.548;2023-08-21T07:48:20;10.75;;;4.38;;
24084;SDS011;12268;52.110;5.548;2023-08-21T07:50:52;10.93;;;4.45;;
24084;SDS011;12268;52.110;5.548;2023-08-21T07:53:21;12.30;;;4.90;;
24084;SDS011;12268;52.110;5.548;2023-08-21T07:55:47;11.65;;;4.93;;
24084;SDS011;12268;52.110;5.548;2023-08-21T07:58:12;11.65;;;4.43;;
24084;SDS011;12268;52.110;5.548;2023-08-21T08:00:38;11.82;;;4.68;;
24084;SDS011;12268;52.110;5.548;2023-08-21T08:03:04;9.05;;;4.53;;
24084;SDS011;12268;52.110;5.548;2023-08-21T08:05:30;14.07;;;5.22;;
24084;SDS011;12268;52.110;5.548;2023-08-21T08:07:56;8.70;;;4.53;;
24084;SDS011;12268;52.110;5.548;2023-08-21T08:10:22;11.23;;;4.55;;
24084;SDS011;12268;52.110;5.548;2023-08-21T08:12:48;8.40;;;4.20;;
24084;SDS011;12268;52.110;5.548;2023-08-21T09:25:17;6.97;;;3.15;;
24084;SDS011;12268;52.110;5.548;2023-08-21T09:27:43;12.85;;;3.30;;
24084;SDS011;12268;52.110;5.548;2023-08-21T09:30:09;10.55;;;3.42;;
24084;SDS011;12268;52.110;5.548;2023-08-21T09:32:59;12.40;;;3.50;;
24084;SDS011;12268;52.110;5.548;2023-08-21T09:35:25;12.02;;;3.33;;
24084;SDS011;12268;52.110;5.548;2023-08-21T09:37:52;8.00;;;3.35;;
24084;SDS011;12268;52.110;5.548;2023-08-21T09:40:18;7.97;;;3.65;;
24084;SDS011;12268;52.110;5.548;2023-08-21T09:42:44;8.00;;;2.92;;
24084;SDS011;12268;52.110;5.548;2023-08-21T09:45:10;8.77;;;2.80;;
24084;SDS011;12268;52.110;5.548;2023-08-21T09:47:36;10.80;;;2.78;;
24084;SDS011;12268;52.110;5.548;2023-08-21T09:50:04;6.40;;;2.20;;
24084;SDS011;12268;52.110;5.548;2023-08-21T09:52:30;9.45;;;2.45;;
24084;SDS011;12268;52.110;5.548;2023-08-21T09:54:57;9.52;;;2.53;;
24084;SDS011;12268;52.110;5.548;2023-08-21T09:57:23;5.93;;;2.55;;
24084;SDS011;12268;52.110;5.548;2023-08-21T09:59:52;5.90;;;2.08;;
24084;SDS011;12268;52.110;5.548;2023-08-21T10:02:22;8.73;;;2.47;;
24084;SDS011;12268;52.110;5.548;2023-08-21T10:04:49;7.78;;;2.20;;
24084;SDS011;12268;52.110;5.548;2023-08-21T10:07:17;5.85;;;2.28;;
24084;SDS011;12268;52.110;5.548;2023-08-21T10:09:47;5.78;;;2.58;;
24084;SDS011;12268;52.110;5.548;2023-08-21T10:12:14;7.78;;;2.30;;
24084;SDS011;12268;52.110;5.548;2023-08-21T10:14:41;7.28;;;2.53;;
24084;SDS011;12268;52.110;5.548;2023-08-21T10:17:07;5.00;;;2.00;;
24084;SDS011;12268;52.110;5.548;2023-08-21T10:19:35;5.40;;;2.00;;
24084;SDS011;12268;52.110;5.548;2023-08-21T10:22:01;8.70;;;2.60;;
24084;SDS011;12268;52.110;5.548;2023-08-21T10:24:37;5.35;;;1.73;;
24084;SDS011;12268;52.110;5.548;2023-08-21T10:27:03;5.95;;;2.15;;
24084;SDS011;12268;52.110;5.548;2023-08-21T10:29:31;7.10;;;2.42;;
24084;SDS011;12268;52.110;5.548;2023-08-21T10:32:01;7.20;;;2.00;;
24084;SDS011;12268;52.110;5.548;2023-08-21T10:34:32;8.32;;;2.67;;
24084;SDS011;12268;52.110;5.548;2023-08-21T10:39:30;6.45;;;2.45;;
24084;SDS011;12268;52.110;5.548;2023-08-21T10:42:11;5.72;;;1.95;;
24084;SDS011;12268;52.110;5.548;2023-08-21T10:49:47;6.50;;;2.00;;
24084;SDS011;12268;52.110;5.548;2023-08-21T10:52:27;5.28;;;2.10;;
24084;SDS011;12268;52.110;5.548;2023-08-21T10:54:55;6.97;;;2.22;;
24084;SDS011;12268;52.110;5.548;2023-08-21T10:57:23;5.47;;;2.40;;
24084;SDS011;12268;52.110;5.548;2023-08-21T10:59:50;5.53;;;2.13;;
24084;SDS011;12268;52.110;5.548;2023-08-21T11:02:18;5.95;;;2.00;;
24084;SDS011;12268;52.110;5.548;2023-08-21T11:04:43;6.00;;;1.75;;
24084;SDS011;12268;52.110;5.548;2023-08-21T11:07:09;3.85;;;1.58;;
24084;SDS011;12268;52.110;5.548;2023-08-21T11:09:37;5.90;;;1.60;;
24084;SDS011;12268;52.110;5.548;2023-08-21T11:12:09;17.00;;;2.78;;
24084;SDS011;12268;52.110;5.548;2023-08-21T11:14:37;8.25;;;2.35;;
24084;SDS011;12268;52.110;5.548;2023-08-21T11:17:03;5.82;;;2.20;;
24084;SDS011;12268;52.110;5.548;2023-08-21T11:19:32;5.18;;;1.73;;
24084;SDS011;12268;52.110;5.548;2023-08-21T11:21:59;6.30;;;1.77;;
24084;SDS011;12268;52.110;5.548;2023-08-21T11:27:04;6.45;;;1.88;;
24084;SDS011;12268;52.110;5.548;2023-08-21T11:29:37;5.85;;;1.92;;
24084;SDS011;12268;52.110;5.548;2023-08-21T11:32:14;7.40;;;2.27;;
24084;SDS011;12268;52.110;5.548;2023-08-21T11:34:48;7.38;;;2.13;;
24084;SDS011;12268;52.110;5.548;2023-08-21T11:37:19;4.97;;;1.85;;
24084;SDS011;12268;52.110;5.548;2023-08-21T11:39:50;5.10;;;1.63;;
24084;SDS011;12268;52.110;5.548;2023-08-21T11:42:17;4.45;;;2.00;;
24084;SDS011;12268;52.110;5.548;2023-08-21T11:44:49;4.72;;;1.55;;
24084;SDS011;12268;52.110;5.548;2023-08-21T11:47:17;6.88;;;1.90;;
24084;SDS011;12268;52.110;5.548;2023-08-21T11:49:45;5.05;;;1.85;;
24084;SDS011;12268;52.110;5.548;2023-08-21T11:52:17;6.38;;;2.10;;
24084;SDS011;12268;52.110;5.548;2023-08-21T11:54:47;4.78;;;1.73;;
24084;SDS011;12268;52.110;5.548;2023-08-21T11:57:14;5.20;;;1.88;;
24084;SDS011;12268;52.110;5.548;2023-08-21T11:59:40;4.60;;;2.05;;
24084;SDS011;12268;52.110;5.548;2023-08-21T12:02:16;7.60;;;2.38;;
24084;SDS011;12268;52.110;5.548;2023-08-21T12:04:43;5.80;;;2.15;;
24084;SDS011;12268;52.110;5.548;2023-08-21T12:07:09;6.53;;;2.20;;
24084;SDS011;12268;52.110;5.548;2023-08-21T12:09:36;5.65;;;2.17;;
24084;SDS011;12268;52.110;5.548;2023-08-21T12:12:01;4.45;;;2.20;;
24084;SDS011;12268;52.110;5.548;2023-08-21T12:14:27;5.35;;;2.40;;
24084;SDS011;12268;52.110;5.548;2023-08-21T12:16:54;6.80;;;2.38;;
24084;SDS011;12268;52.110;5.548;2023-08-21T12:19:21;5.57;;;2.10;;
24084;SDS011;12268;52.110;5.548;2023-08-21T12:21:48;6.20;;;2.35;;
24084;SDS011;12268;52.110;5.548;2023-08-21T12:24:13;5.43;;;2.42;;
24084;SDS011;12268;52.110;5.548;2023-08-21T12:26:39;7.03;;;2.47;;
24084;SDS011;12268;52.110;5.548;2023-08-21T12:29:04;6.95;;;2.60;;
24084;SDS011;12268;52.110;5.548;2023-08-21T12:31:30;9.30;;;2.75;;
24084;SDS011;12268;52.110;5.548;2023-08-21T12:33:56;5.68;;;2.22;;
24084;SDS011;12268;52.110;5.548;2023-08-21T12:36:21;5.72;;;2.15;;
24084;SDS011;12268;52.110;5.548;2023-08-21T12:38:47;7.22;;;2.50;;
24084;SDS011;12268;52.110;5.548;2023-08-21T12:41:13;5.78;;;2.22;;
24084;SDS011;12268;52.110;5.548;2023-08-21T12:43:38;6.05;;;2.30;;
24084;SDS011;12268;52.110;5.548;2023-08-21T12:46:04;6.50;;;2.30;;
24084;SDS011;12268;52.110;5.548;2023-08-21T12:48:30;5.18;;;2.20;;
24084;SDS011;12268;52.110;5.548;2023-08-21T12:50:55;5.15;;;2.05;;
24084;SDS011;12268;52.110;5.548;2023-08-21T12:53:21;6.75;;;2.30;;
24084;SDS011;12268;52.110;5.548;2023-08-21T12:55:47;6.20;;;2.40;;
24084;SDS011;12268;52.110;5.548;2023-08-21T12:58:13;5.03;;;2.15;;
24084;SDS011;12268;52.110;5.548;2023-08-21T13:00:38;6.22;;;2.30;;
24084;SDS011;12268;52.110;5.548;2023-08-21T13:03:04;4.88;;;2.17;;
24084;SDS011;12268;52.110;5.548;2023-08-21T13:05:30;7.88;;;2.05;;
24084;SDS011;12268;52.110;5.548;2023-08-21T13:07:56;4.72;;;2.10;;
24084;SDS011;12268;52.110;5.548;2023-08-21T13:10:21;4.07;;;1.95;;
24084;SDS011;12268;52.110;5.548;2023-08-21T13:12:47;6.68;;;2.33;;
24084;SDS011;12268;52.110;5.548;2023-08-21T13:15:13;4.85;;;2.08;;
24084;SDS011;12268;52.110;5.548;2023-08-21T13:17:39;4.82;;;2.20;;
24084;SDS011;12268;52.110;5.548;2023-08-21T13:20:05;6.13;;;2.10;;
24084;SDS011;12268;52.110;5.548;2023-08-21T13:23:04;3.67;;;1.80;;
24084;SDS011;12268;52.110;5.548;2023-08-21T13:25:23;4.43;;;1.70;;
24084;SDS011;12268;52.110;5.548;2023-08-21T13:27:50;5.60;;;2.17;;
24084;SDS011;12268;52.110;5.548;2023-08-21T13:30:16;6.65;;;2.08;;
24084;SDS011;12268;52.110;5.548;2023-08-21T13:32:42;5.63;;;1.90;;
24084;SDS011;12268;52.110;5.548;2023-08-21T13:35:08;3.78;;;1.77;;
24084;SDS011;12268;52.110;5.548;2023-08-21T13:37:34;5.68;;;2.20;;
24084;SDS011;12268;52.110;5.548;2023-08-21T13:40:01;7.30;;;2.80;;
24084;SDS011;12268;52.110;5.548;2023-08-21T13:42:35;8.65;;;2.20;;
24084;SDS011;12268;52.110;5.548;2023-08-21T13:45:07;4.43;;;2.15;;
24084;SDS011;12268;52.110;5.548;2023-08-21T13:47:36;6.63;;;2.50;;
24084;SDS011;12268;52.110;5.548;2023-08-21T13:50:02;6.40;;;2.25;;
24084;SDS011;12268;52.110;5.548;2023-08-21T13:52:28;4.63;;;1.88;;
24084;SDS011;12268;52.110;5.548;2023-08-21T13:54:54;8.25;;;2.53;;
24084;SDS011;12268;52.110;5.548;2023-08-21T13:57:19;6.15;;;2.05;;
24084;SDS011;12268;52.110;5.548;2023-08-21T13:59:45;7.63;;;2.25;;
24084;SDS011;12268;52.110;5.548;2023-08-21T14:02:10;4.72;;;2.30;;
24084;SDS011;12268;52.110;5.548;2023-08-21T14:04:36;4.75;;;2.53;;
24084;SDS011;12268;52.110;5.548;2023-08-21T14:07:02;7.93;;;2.45;;
24084;SDS011;12268;52.110;5.548;2023-08-21T14:09:27;5.55;;;2.47;;
24084;SDS011;12268;52.110;5.548;2023-08-21T14:11:53;6.53;;;2.72;;
24084;SDS011;12268;52.110;5.548;2023-08-21T14:14:18;6.63;;;2.65;;
24084;SDS011;12268;52.110;5.548;2023-08-21T14:16:44;7.50;;;2.45;;
24084;SDS011;12268;52.110;5.548;2023-08-21T14:19:09;6.05;;;3.22;;
24084;SDS011;12268;52.110;5.548;2023-08-21T14:21:35;6.82;;;2.90;;
24084;SDS011;12268;52.110;5.548;2023-08-21T14:24:00;8.30;;;3.53;;
24084;SDS011;12268;52.110;5.548;2023-08-21T14:26:26;9.10;;;3.38;;
24084;SDS011;12268;52.110;5.548;2023-08-21T14:28:52;6.55;;;3.10;;
24084;SDS011;12268;52.110;5.548;2023-08-21T14:31:17;5.32;;;3.60;;
24084;SDS011;12268;52.110;5.548;2023-08-21T14:33:43;5.53;;;2.70;;
24084;SDS011;12268;52.110;5.548;2023-08-21T14:36:08;8.98;;;2.67;;
24084;SDS011;12268;52.110;5.548;2023-08-21T14:38:34;6.75;;;2.58;;
24084;SDS011;12268;52.110;5.548;2023-08-21T14:40:59;5.70;;;3.58;;
24084;SDS011;12268;52.110;5.548;2023-08-21T14:43:25;7.57;;;2.65;;
24084;SDS011;12268;52.110;5.548;2023-08-21T14:45:50;5.68;;;2.22;;
24084;SDS011;12268;52.110;5.548;2023-08-21T14:48:16;6.93;;;2.22;;
24084;SDS011;12268;52.110;5.548;2023-08-21T14:50:42;7.15;;;2.45;;
24084;SDS011;12268;52.110;5.548;2023-08-21T14:53:08;5.03;;;1.98;;
24084;SDS011;12268;52.110;5.548;2023-08-21T14:55:34;7.97;;;2.90;;
24084;SDS011;12268;52.110;5.548;2023-08-21T14:57:59;7.28;;;2.88;;
24084;SDS011;12268;52.110;5.548;2023-08-21T15:00:30;8.50;;;2.50;;
24084;SDS011;12268;52.110;5.548;2023-08-21T15:02:56;7.65;;;2.45;;
24084;SDS011;12268;52.110;5.548;2023-08-21T15:05:21;6.78;;;1.88;;
24084;SDS011;12268;52.110;5.548;2023-08-21T15:07:47;8.10;;;2.13;;
24084;SDS011;12268;52.110;5.548;2023-08-21T15:10:12;10.25;;;2.38;;
24084;SDS011;12268;52.110;5.548;2023-08-21T15:12:38;13.25;;;2.20;;
24084;SDS011;12268;52.110;5.548;2023-08-21T15:15:03;6.28;;;1.75;;
24084;SDS011;12268;52.110;5.548;2023-08-21T15:17:30;5.70;;;1.75;;
24084;SDS011;12268;52.110;5.548;2023-08-21T15:19:55;3.97;;;1.80;;
24084;SDS011;12268;52.110;5.548;2023-08-21T15:22:21;5.40;;;2.45;;
24084;SDS011;12268;52.110;5.548;2023-08-21T15:24:47;4.20;;;1.70;;
24084;SDS011;12268;52.110;5.548;2023-08-21T15:27:12;4.88;;;1.88;;
24084;SDS011;12268;52.110;5.548;2023-08-21T15:29:38;4.00;;;1.70;;
24084;SDS011;12268;52.110;5.548;2023-08-21T15:32:04;5.82;;;2.38;;
24084;SDS011;12268;52.110;5.548;2023-08-21T15:34:29;7.40;;;2.78;;
24084;SDS011;12268;52.110;5.548;2023-08-21T15:36:55;5.35;;;2.13;;
24084;SDS011;12268;52.110;5.548;2023-08-21T15:39:21;7.78;;;2.65;;
24084;SDS011;12268;52.110;5.548;2023-08-21T15:41:47;5.80;;;2.20;;
24084;SDS011;12268;52.110;5.548;2023-08-21T15:44:13;5.43;;;2.20;;
24084;SDS011;12268;52.110;5.548;2023-08-21T15:46:39;5.88;;;2.60;;
24084;SDS011;12268;52.110;5.548;2023-08-21T15:49:06;6.75;;;2.20;;
24084;SDS011;12268;52.110;5.548;2023-08-21T15:51:34;7.60;;;2.97;;
24084;SDS011;12268;52.110;5.548;2023-08-21T15:53:59;4.70;;;2.20;;